sensor_id;sensor_type;location;lat;lon;timestamp;P1;durP1;ratioP1;P2;durP2;ratioP2
75441;SDS011;64019;48.312;14.226;2024-02-23T00:02:17;11.23;;;6.63;;
75441;SDS011;64019;48.312;14.226;2024-02-23T00:04:43;8.70;;;5.33;;
75441;SDS011;64019;48.312;14.226;2024-02-23T00:07:09;9.83;;;5.27;;
75441;SDS011;64019;48.312;14.226;2024-02-23T00:09:36;10.30;;;5.80;;
75441;SDS011;64019;48.312;14.226;2024-02-23T00:12:03;9.53;;;5.77;;
75441;SDS011;64019;48.312;14.226;2024-02-23T00:14:29;11.70;;;5.57;;
75441;SDS011;64019;48.312;14.226;2024-02-23T00:17:01;11.27;;;5.37;;
75441;SDS011;64019;48.312;14.226;2024-02-23T00:19:30;10.03;;;6.03;;
75441;SDS011;64019;48.312;14.226;2024-02-23T00:21:56;14.13;;;5.60;;
75441;SDS011;64019;48.312;14.226;2024-02-23T00:24:24;10.00;;;5.33;;
75441;SDS011;64019;48.312;14.226;2024-02-23T00:26:52;10.03;;;5.60;;
75441;SDS011;64019;48.312;14.226;2024-02-23T00:29:19;9.13;;;5.27;;
75441;SDS011;64019;48.312;14.226;2024-02-23T00:31:44;13.13;;;6.10;;
75441;SDS011;64019;48.312;14.226;2024-02-23T00:34:10;10.33;;;4.80;;
75441;SDS011;64019;48.312;14.226;2024-02-23T00:36:41;11.33;;;5.33;;
75441;SDS011;64019;48.312;14.226;2024-02-23T00:39:07;11.57;;;5.20;;
75441;SDS011;64019;48.312;14.226;2024-02-23T00:41:33;9.43;;;5.93;;
75441;SDS011;64019;48.312;14.226;2024-02-23T00:43:59;14.30;;;5.80;;
75441;SDS011;64019;48.312;14.226;2024-02-23T00:46:25;11.00;;;5.97;;
75441;SDS011;64019;48.312;14.226;2024-02-23T00:48:51;10.17;;;5.30;;
75441;SDS011;64019;48.312;14.226;2024-02-23T00:51:16;11.87;;;5.63;;
75441;SDS011;64019;48.312;14.226;2024-02-23T00:53:42;14.27;;;6.03;;
75441;SDS011;64019;48.312;14.226;2024-02-23T00:56:08;16.77;;;5.43;;
75441;SDS011;64019;48.312;14.226;2024-02-23T00:58:34;14.07;;;6.03;;
75441;SDS011;64019;48.312;14.226;2024-02-23T01:01:00;13.47;;;6.27;;
75441;SDS011;64019;48.312;14.226;2024-02-23T01:03:26;10.60;;;5.43;;
75441;SDS011;64019;48.312;14.226;2024-02-23T01:05:51;14.00;;;6.00;;
75441;SDS011;64019;48.312;14.226;2024-02-23T01:08:17;12.40;;;5.93;;
75441;SDS011;64019;48.312;14.226;2024-02-23T01:10:43;10.97;;;6.03;;
75441;SDS011;64019;48.312;14.226;2024-02-23T01:13:09;9.30;;;5.83;;
75441;SDS011;64019;48.312;14.226;2024-02-23T01:15:35;11.90;;;6.13;;
75441;SDS011;64019;48.312;14.226;2024-02-23T01:18:00;12.33;;;6.47;;
75441;SDS011;64019;48.312;14.226;2024-02-23T01:20:26;17.60;;;6.57;;
75441;SDS011;64019;48.312;14.226;2024-02-23T01:22:52;11.00;;;6.47;;
75441;SDS011;64019;48.312;14.226;2024-02-23T01:25:17;14.07;;;7.10;;
75441;SDS011;64019;48.312;14.226;2024-02-23T01:27:43;16.57;;;6.30;;
75441;SDS011;64019;48.312;14.226;2024-02-23T01:30:09;20.13;;;6.90;;
75441;SDS011;64019;48.312;14.226;2024-02-23T01:32:35;11.83;;;6.63;;
75441;SDS011;64019;48.312;14.226;2024-02-23T01:35:03;13.33;;;7.10;;
75441;SDS011;64019;48.312;14.226;2024-02-23T01:37:33;13.47;;;6.77;;
75441;SDS011;64019;48.312;14.226;2024-02-23T01:39:59;14.57;;;7.17;;
75441;SDS011;64019;48.312;14.226;2024-02-23T01:42:25;11.07;;;7.23;;
75441;SDS011;64019;48.312;14.226;2024-02-23T01:44:51;18.60;;;7.27;;
75441;SDS011;64019;48.312;14.226;2024-02-23T01:47:17;12.93;;;7.27;;
75441;SDS011;64019;48.312;14.226;2024-02-23T01:49:44;15.83;;;8.07;;
75441;SDS011;64019;48.312;14.226;2024-02-23T01:52:11;12.53;;;7.40;;
75441;SDS011;64019;48.312;14.226;2024-02-23T01:54:39;17.40;;;8.70;;
75441;SDS011;64019;48.312;14.226;2024-02-23T01:57:05;18.40;;;8.67;;
75441;SDS011;64019;48.312;14.226;2024-02-23T01:59:32;19.33;;;8.67;;
75441;SDS011;64019;48.312;14.226;2024-02-23T02:01:57;13.90;;;8.20;;
75441;SDS011;64019;48.312;14.226;2024-02-23T02:04:23;15.60;;;8.53;;
75441;SDS011;64019;48.312;14.226;2024-02-23T02:06:48;18.53;;;9.17;;
75441;SDS011;64019;48.312;14.226;2024-02-23T02:09:14;16.03;;;8.57;;
75441;SDS011;64019;48.312;14.226;2024-02-23T02:11:46;15.03;;;8.13;;
75441;SDS011;64019;48.312;14.226;2024-02-23T02:14:13;14.87;;;7.67;;
75441;SDS011;64019;48.312;14.226;2024-02-23T02:16:39;17.93;;;7.53;;
75441;SDS011;64019;48.312;14.226;2024-02-23T02:19:05;14.27;;;7.93;;
75441;SDS011;64019;48.312;14.226;2024-02-23T02:21:31;12.77;;;7.10;;
75441;SDS011;64019;48.312;14.226;2024-02-23T02:23:58;15.00;;;7.40;;
75441;SDS011;64019;48.312;14.226;2024-02-23T02:26:23;12.60;;;7.53;;
75441;SDS011;64019;48.312;14.226;2024-02-23T02:28:49;13.60;;;7.80;;
75441;SDS011;64019;48.312;14.226;2024-02-23T02:31:15;16.50;;;7.60;;
75441;SDS011;64019;48.312;14.226;2024-02-23T02:33:40;18.30;;;7.77;;
75441;SDS011;64019;48.312;14.226;2024-02-23T02:36:06;14.67;;;7.27;;
75441;SDS011;64019;48.312;14.226;2024-02-23T02:38:32;11.97;;;7.67;;
75441;SDS011;64019;48.312;14.226;2024-02-23T02:40:58;15.37;;;7.10;;
75441;SDS011;64019;48.312;14.226;2024-02-23T02:43:25;14.60;;;7.70;;
75441;SDS011;64019;48.312;14.226;2024-02-23T02:45:51;13.20;;;6.60;;
75441;SDS011;64019;48.312;14.226;2024-02-23T02:48:17;9.53;;;6.00;;
75441;SDS011;64019;48.312;14.226;2024-02-23T02:50:43;13.13;;;6.73;;
75441;SDS011;64019;48.312;14.226;2024-02-23T02:53:09;16.03;;;7.37;;
75441;SDS011;64019;48.312;14.226;2024-02-23T02:55:35;15.30;;;7.53;;
75441;SDS011;64019;48.312;14.226;2024-02-23T02:58:01;12.70;;;6.23;;
75441;SDS011;64019;48.312;14.226;2024-02-23T03:00:27;9.30;;;6.50;;
75441;SDS011;64019;48.312;14.226;2024-02-23T03:02:53;11.30;;;6.63;;
75441;SDS011;64019;48.312;14.226;2024-02-23T03:05:19;14.83;;;6.93;;
75441;SDS011;64019;48.312;14.226;2024-02-23T03:07:45;12.33;;;6.70;;
75441;SDS011;64019;48.312;14.226;2024-02-23T03:10:11;13.67;;;7.13;;
75441;SDS011;64019;48.312;14.226;2024-02-23T03:12:36;14.07;;;7.83;;
75441;SDS011;64019;48.312;14.226;2024-02-23T03:15:02;14.17;;;7.40;;
75441;SDS011;64019;48.312;14.226;2024-02-23T03:17:29;11.13;;;6.40;;
75441;SDS011;64019;48.312;14.226;2024-02-23T03:19:54;12.30;;;6.63;;
75441;SDS011;64019;48.312;14.226;2024-02-23T03:22:20;15.10;;;6.53;;
75441;SDS011;64019;48.312;14.226;2024-02-23T03:24:46;11.87;;;6.90;;
75441;SDS011;64019;48.312;14.226;2024-02-23T03:27:11;13.17;;;6.77;;
75441;SDS011;64019;48.312;14.226;2024-02-23T03:29:38;13.67;;;6.93;;
75441;SDS011;64019;48.312;14.226;2024-02-23T03:32:04;13.97;;;7.30;;
75441;SDS011;64019;48.312;14.226;2024-02-23T03:34:31;12.97;;;6.97;;
75441;SDS011;64019;48.312;14.226;2024-02-23T03:36:56;13.97;;;6.80;;
75441;SDS011;64019;48.312;14.226;2024-02-23T03:39:23;13.20;;;6.83;;
75441;SDS011;64019;48.312;14.226;2024-02-23T03:41:50;12.63;;;6.93;;
75441;SDS011;64019;48.312;14.226;2024-02-23T03:44:15;11.13;;;6.47;;
75441;SDS011;64019;48.312;14.226;2024-02-23T03:46:41;15.43;;;6.67;;
75441;SDS011;64019;48.312;14.226;2024-02-23T03:49:07;11.83;;;7.27;;
75441;SDS011;64019;48.312;14.226;2024-02-23T03:51:32;13.17;;;7.17;;
75441;SDS011;64019;48.312;14.226;2024-02-23T03:54:00;14.50;;;7.53;;
75441;SDS011;64019;48.312;14.226;2024-02-23T03:56:25;8.70;;;6.20;;
75441;SDS011;64019;48.312;14.226;2024-02-23T03:58:51;13.30;;;6.93;;
75441;SDS011;64019;48.312;14.226;2024-02-23T04:01:17;11.40;;;6.70;;
75441;SDS011;64019;48.312;14.226;2024-02-23T04:03:42;15.07;;;6.83;;
75441;SDS011;64019;48.312;14.226;2024-02-23T04:06:08;15.80;;;7.33;;
75441;SDS011;64019;48.312;14.226;2024-02-23T04:08:33;12.87;;;6.90;;
75441;SDS011;64019;48.312;14.226;2024-02-23T04:10:59;12.50;;;6.90;;
75441;SDS011;64019;48.312;14.226;2024-02-23T04:13:25;9.77;;;5.80;;
75441;SDS011;64019;48.312;14.226;2024-02-23T04:15:52;11.17;;;5.67;;
75441;SDS011;64019;48.312;14.226;2024-02-23T04:18:17;10.33;;;6.77;;
75441;SDS011;64019;48.312;14.226;2024-02-23T04:20:43;11.07;;;6.57;;
75441;SDS011;64019;48.312;14.226;2024-02-23T04:23:09;10.20;;;6.00;;
75441;SDS011;64019;48.312;14.226;2024-02-23T04:25:34;11.33;;;6.33;;
75441;SDS011;64019;48.312;14.226;2024-02-23T04:28:00;10.43;;;6.50;;
75441;SDS011;64019;48.312;14.226;2024-02-23T04:30:26;10.17;;;5.97;;
75441;SDS011;64019;48.312;14.226;2024-02-23T04:32:51;11.20;;;6.30;;
75441;SDS011;64019;48.312;14.226;2024-02-23T04:35:17;11.00;;;5.80;;
75441;SDS011;64019;48.312;14.226;2024-02-23T04:37:43;12.50;;;5.60;;
75441;SDS011;64019;48.312;14.226;2024-02-23T04:40:10;19.60;;;6.07;;
75441;SDS011;64019;48.312;14.226;2024-02-23T04:42:36;11.90;;;6.43;;
75441;SDS011;64019;48.312;14.226;2024-02-23T04:45:02;13.03;;;5.77;;
75441;SDS011;64019;48.312;14.226;2024-02-23T04:47:28;9.17;;;5.43;;
75441;SDS011;64019;48.312;14.226;2024-02-23T04:49:53;12.47;;;5.70;;
75441;SDS011;64019;48.312;14.226;2024-02-23T04:52:19;8.53;;;5.30;;
75441;SDS011;64019;48.312;14.226;2024-02-23T04:54:45;9.53;;;4.77;;
75441;SDS011;64019;48.312;14.226;2024-02-23T04:57:10;5.80;;;3.87;;
75441;SDS011;64019;48.312;14.226;2024-02-23T04:59:36;7.57;;;4.00;;
75441;SDS011;64019;48.312;14.226;2024-02-23T05:02:02;7.73;;;4.77;;
75441;SDS011;64019;48.312;14.226;2024-02-23T05:04:27;7.97;;;4.40;;
75441;SDS011;64019;48.312;14.226;2024-02-23T05:06:53;8.13;;;4.57;;
75441;SDS011;64019;48.312;14.226;2024-02-23T05:09:19;8.97;;;5.50;;
75441;SDS011;64019;48.312;14.226;2024-02-23T05:11:45;10.17;;;5.90;;
75441;SDS011;64019;48.312;14.226;2024-02-23T05:14:12;10.83;;;5.80;;
75441;SDS011;64019;48.312;14.226;2024-02-23T05:16:38;9.10;;;5.53;;
75441;SDS011;64019;48.312;14.226;2024-02-23T05:19:03;9.07;;;5.47;;
75441;SDS011;64019;48.312;14.226;2024-02-23T05:21:29;12.47;;;6.27;;
75441;SDS011;64019;48.312;14.226;2024-02-23T05:23:56;10.33;;;6.27;;
75441;SDS011;64019;48.312;14.226;2024-02-23T05:26:21;12.33;;;6.10;;
75441;SDS011;64019;48.312;14.226;2024-02-23T05:28:47;12.57;;;5.53;;
75441;SDS011;64019;48.312;14.226;2024-02-23T05:31:13;9.83;;;4.80;;
75441;SDS011;64019;48.312;14.226;2024-02-23T05:33:39;9.13;;;4.87;;
75441;SDS011;64019;48.312;14.226;2024-02-23T05:36:05;10.17;;;6.07;;
75441;SDS011;64019;48.312;14.226;2024-02-23T05:38:30;9.50;;;5.40;;
75441;SDS011;64019;48.312;14.226;2024-02-23T05:40:56;17.67;;;8.73;;
75441;SDS011;64019;48.312;14.226;2024-02-23T05:43:22;9.20;;;5.30;;
75441;SDS011;64019;48.312;14.226;2024-02-23T05:45:47;5.77;;;2.70;;
75441;SDS011;64019;48.312;14.226;2024-02-23T05:48:13;0.53;;;0.53;;
75441;SDS011;64019;48.312;14.226;2024-02-23T05:50:39;0.47;;;0.47;;
75441;SDS011;64019;48.312;14.226;2024-02-23T05:53:04;0.47;;;0.30;;
75441;SDS011;64019;48.312;14.226;2024-02-23T05:55:30;0.20;;;0.20;;
75441;SDS011;64019;48.312;14.226;2024-02-23T05:57:56;0.23;;;0.23;;
75441;SDS011;64019;48.312;14.226;2024-02-23T06:00:22;0.33;;;0.23;;
75441;SDS011;64019;48.312;14.226;2024-02-23T06:02:48;1.87;;;0.30;;
75441;SDS011;64019;48.312;14.226;2024-02-23T06:05:13;0.50;;;0.30;;
75441;SDS011;64019;48.312;14.226;2024-02-23T06:07:41;0.47;;;0.40;;
75441;SDS011;64019;48.312;14.226;2024-02-23T06:10:06;1.10;;;0.80;;
75441;SDS011;64019;48.312;14.226;2024-02-23T06:12:32;0.30;;;0.30;;
75441;SDS011;64019;48.312;14.226;2024-02-23T06:14:58;0.30;;;0.30;;
75441;SDS011;64019;48.312;14.226;2024-02-23T06:17:24;1.00;;;0.50;;
75441;SDS011;64019;48.312;14.226;2024-02-23T06:19:50;2.53;;;0.40;;
75441;SDS011;64019;48.312;14.226;2024-02-23T06:22:18;0.30;;;0.30;;
75441;SDS011;64019;48.312;14.226;2024-02-23T06:24:46;2.57;;;0.30;;
75441;SDS011;64019;48.312;14.226;2024-02-23T06:27:12;6.17;;;0.40;;
75441;SDS011;64019;48.312;14.226;2024-02-23T06:29:38;0.40;;;0.40;;
75441;SDS011;64019;48.312;14.226;2024-02-23T06:32:03;0.50;;;0.40;;
75441;SDS011;64019;48.312;14.226;2024-02-23T06:34:29;2.63;;;0.43;;
75441;SDS011;64019;48.312;14.226;2024-02-23T06:36:55;0.57;;;0.40;;
75441;SDS011;64019;48.312;14.226;2024-02-23T06:39:21;1.43;;;0.47;;
75441;SDS011;64019;48.312;14.226;2024-02-23T06:41:46;0.83;;;0.50;;
75441;SDS011;64019;48.312;14.226;2024-02-23T06:44:12;0.93;;;0.50;;
75441;SDS011;64019;48.312;14.226;2024-02-23T06:46:38;1.47;;;0.20;;
75441;SDS011;64019;48.312;14.226;2024-02-23T06:49:03;1.10;;;0.30;;
75441;SDS011;64019;48.312;14.226;2024-02-23T06:51:30;0.40;;;0.20;;
75441;SDS011;64019;48.312;14.226;2024-02-23T06:53:56;0.47;;;0.47;;
75441;SDS011;64019;48.312;14.226;2024-02-23T06:56:22;0.20;;;0.20;;
75441;SDS011;64019;48.312;14.226;2024-02-23T06:58:48;0.50;;;0.40;;
75441;SDS011;64019;48.312;14.226;2024-02-23T07:01:14;0.30;;;0.30;;
75441;SDS011;64019;48.312;14.226;2024-02-23T07:03:39;0.50;;;0.30;;
75441;SDS011;64019;48.312;14.226;2024-02-23T07:06:07;0.10;;;0.10;;
75441;SDS011;64019;48.312;14.226;2024-02-23T07:08:35;0.30;;;0.30;;
75441;SDS011;64019;48.312;14.226;2024-02-23T07:11:01;0.70;;;0.50;;
75441;SDS011;64019;48.312;14.226;2024-02-23T07:13:26;1.50;;;0.30;;
75441;SDS011;64019;48.312;14.226;2024-02-23T07:15:52;1.20;;;0.30;;
75441;SDS011;64019;48.312;14.226;2024-02-23T07:18:18;0.73;;;0.33;;
75441;SDS011;64019;48.312;14.226;2024-02-23T07:20:44;0.30;;;0.30;;
75441;SDS011;64019;48.312;14.226;2024-02-23T07:23:09;2.57;;;0.40;;
75441;SDS011;64019;48.312;14.226;2024-02-23T07:25:35;0.30;;;0.30;;
75441;SDS011;64019;48.312;14.226;2024-02-23T07:28:01;2.43;;;0.37;;
75441;SDS011;64019;48.312;14.226;2024-02-23T07:30:28;0.40;;;0.30;;
75441;SDS011;64019;48.312;14.226;2024-02-23T07:32:54;0.20;;;0.20;;
75441;SDS011;64019;48.312;14.226;2024-02-23T07:35:19;0.10;;;0.10;;
75441;SDS011;64019;48.312;14.226;2024-02-23T07:37:45;0.97;;;0.20;;
75441;SDS011;64019;48.312;14.226;2024-02-23T07:40:11;2.20;;;0.50;;
75441;SDS011;64019;48.312;14.226;2024-02-23T07:42:37;1.10;;;0.30;;
75441;SDS011;64019;48.312;14.226;2024-02-23T07:45:03;0.40;;;0.30;;
75441;SDS011;64019;48.312;14.226;2024-02-23T07:47:33;0.40;;;0.30;;
75441;SDS011;64019;48.312;14.226;2024-02-23T07:49:59;2.60;;;0.30;;
75441;SDS011;64019;48.312;14.226;2024-02-23T07:52:24;0.50;;;0.30;;
75441;SDS011;64019;48.312;14.226;2024-02-23T07:54:53;0.50;;;0.23;;
75441;SDS011;64019;48.312;14.226;2024-02-23T07:57:19;2.10;;;0.30;;
75441;SDS011;64019;48.312;14.226;2024-02-23T07:59:45;1.23;;;0.30;;
75441;SDS011;64019;48.312;14.226;2024-02-23T08:02:11;1.13;;;0.40;;
75441;SDS011;64019;48.312;14.226;2024-02-23T08:04:37;3.90;;;0.50;;
75441;SDS011;64019;48.312;14.226;2024-02-23T08:07:03;1.60;;;0.20;;
75441;SDS011;64019;48.312;14.226;2024-02-23T08:09:29;0.30;;;0.23;;
75441;SDS011;64019;48.312;14.226;2024-02-23T08:11:55;0.50;;;0.30;;
75441;SDS011;64019;48.312;14.226;2024-02-23T08:14:21;1.47;;;0.83;;
75441;SDS011;64019;48.312;14.226;2024-02-23T08:16:46;0.33;;;0.20;;
75441;SDS011;64019;48.312;14.226;2024-02-23T08:19:12;0.43;;;0.30;;
75441;SDS011;64019;48.312;14.226;2024-02-23T08:21:38;0.40;;;0.40;;
75441;SDS011;64019;48.312;14.226;2024-02-23T08:24:04;1.67;;;0.43;;
75441;SDS011;64019;48.312;14.226;2024-02-23T08:26:30;0.20;;;0.20;;
75441;SDS011;64019;48.312;14.226;2024-02-23T08:28:56;1.80;;;0.37;;
75441;SDS011;64019;48.312;14.226;2024-02-23T08:31:21;0.20;;;0.20;;
75441;SDS011;64019;48.312;14.226;2024-02-23T08:33:47;0.43;;;0.40;;
75441;SDS011;64019;48.312;14.226;2024-02-23T08:36:12;1.73;;;0.50;;
75441;SDS011;64019;48.312;14.226;2024-02-23T08:38:38;0.30;;;0.30;;
75441;SDS011;64019;48.312;14.226;2024-02-23T08:41:04;0.47;;;0.30;;
75441;SDS011;64019;48.312;14.226;2024-02-23T08:43:29;0.93;;;0.30;;
75441;SDS011;64019;48.312;14.226;2024-02-23T08:45:55;0.57;;;0.47;;
75441;SDS011;64019;48.312;14.226;2024-02-23T08:48:21;0.80;;;0.30;;
75441;SDS011;64019;48.312;14.226;2024-02-23T08:50:46;0.47;;;0.47;;
75441;SDS011;64019;48.312;14.226;2024-02-23T08:53:12;0.50;;;0.27;;
75441;SDS011;64019;48.312;14.226;2024-02-23T08:55:38;0.60;;;0.30;;
75441;SDS011;64019;48.312;14.226;2024-02-23T08:58:03;0.57;;;0.30;;
75441;SDS011;64019;48.312;14.226;2024-02-23T09:00:31;0.20;;;0.20;;
75441;SDS011;64019;48.312;14.226;2024-02-23T09:02:57;0.57;;;0.30;;
75441;SDS011;64019;48.312;14.226;2024-02-23T09:05:22;0.53;;;0.27;;
75441;SDS011;64019;48.312;14.226;2024-02-23T09:07:48;1.23;;;0.40;;
75441;SDS011;64019;48.312;14.226;2024-02-23T09:10:14;0.23;;;0.20;;
75441;SDS011;64019;48.312;14.226;2024-02-23T09:12:40;0.20;;;0.20;;
75441;SDS011;64019;48.312;14.226;2024-02-23T09:15:05;0.20;;;0.20;;
75441;SDS011;64019;48.312;14.226;2024-02-23T09:17:31;0.40;;;0.30;;
75441;SDS011;64019;48.312;14.226;2024-02-23T09:19:57;0.20;;;0.20;;
75441;SDS011;64019;48.312;14.226;2024-02-23T09:22:23;3.00;;;0.20;;
75441;SDS011;64019;48.312;14.226;2024-02-23T09:24:48;0.47;;;0.30;;
75441;SDS011;64019;48.312;14.226;2024-02-23T09:30:23;1.00;;;0.23;;
75441;SDS011;64019;48.312;14.226;2024-02-23T09:33:02;0.40;;;0.40;;
75441;SDS011;64019;48.312;14.226;2024-02-23T09:35:46;0.30;;;0.30;;
75441;SDS011;64019;48.312;14.226;2024-02-23T09:38:11;1.47;;;0.20;;
75441;SDS011;64019;48.312;14.226;2024-02-23T09:40:38;0.50;;;0.20;;
75441;SDS011;64019;48.312;14.226;2024-02-23T09:43:04;0.83;;;0.30;;
75441;SDS011;64019;48.312;14.226;2024-02-23T09:45:33;0.67;;;0.33;;
75441;SDS011;64019;48.312;14.226;2024-02-23T09:47:58;1.13;;;0.40;;
75441;SDS011;64019;48.312;14.226;2024-02-23T09:50:28;0.30;;;0.30;;
75441;SDS011;64019;48.312;14.226;2024-02-23T09:52:55;0.23;;;0.23;;
75441;SDS011;64019;48.312;14.226;2024-02-23T09:55:23;0.20;;;0.20;;
75441;SDS011;64019;48.312;14.226;2024-02-23T09:57:50;0.47;;;0.40;;
75441;SDS011;64019;48.312;14.226;2024-02-23T10:00:21;0.40;;;0.40;;
75441;SDS011;64019;48.312;14.226;2024-02-23T10:02:49;0.87;;;0.30;;
75441;SDS011;64019;48.312;14.226;2024-02-23T10:05:15;0.37;;;0.27;;
75441;SDS011;64019;48.312;14.226;2024-02-23T10:07:42;0.77;;;0.30;;
75441;SDS011;64019;48.312;14.226;2024-02-23T10:10:09;0.57;;;0.23;;
75441;SDS011;64019;48.312;14.226;2024-02-23T10:12:36;0.93;;;0.40;;
75441;SDS011;64019;48.312;14.226;2024-02-23T10:15:02;0.57;;;0.47;;
75441;SDS011;64019;48.312;14.226;2024-02-23T10:17:31;0.97;;;0.40;;
75441;SDS011;64019;48.312;14.226;2024-02-23T10:19:59;0.80;;;0.40;;
75441;SDS011;64019;48.312;14.226;2024-02-23T10:22:24;0.77;;;0.40;;
75441;SDS011;64019;48.312;14.226;2024-02-23T10:24:50;1.13;;;0.50;;
75441;SDS011;64019;48.312;14.226;2024-02-23T10:27:16;1.37;;;0.70;;
75441;SDS011;64019;48.312;14.226;2024-02-23T10:29:42;0.37;;;0.37;;
75441;SDS011;64019;48.312;14.226;2024-02-23T10:32:08;1.53;;;0.37;;
75441;SDS011;64019;48.312;14.226;2024-02-23T10:34:39;1.80;;;0.37;;
75441;SDS011;64019;48.312;14.226;2024-02-23T10:37:08;0.67;;;0.47;;
75441;SDS011;64019;48.312;14.226;2024-02-23T10:39:35;1.87;;;0.50;;
75441;SDS011;64019;48.312;14.226;2024-02-23T10:42:03;0.40;;;0.40;;
75441;SDS011;64019;48.312;14.226;2024-02-23T10:44:30;0.50;;;0.33;;
75441;SDS011;64019;48.312;14.226;2024-02-23T10:46:57;2.77;;;0.57;;
75441;SDS011;64019;48.312;14.226;2024-02-23T10:49:24;3.10;;;0.83;;
75441;SDS011;64019;48.312;14.226;2024-02-23T10:51:53;3.30;;;1.30;;
75441;SDS011;64019;48.312;14.226;2024-02-23T10:54:19;0.43;;;0.43;;
75441;SDS011;64019;48.312;14.226;2024-02-23T10:56:46;0.50;;;0.50;;
75441;SDS011;64019;48.312;14.226;2024-02-23T10:59:13;1.23;;;0.50;;
75441;SDS011;64019;48.312;14.226;2024-02-23T11:01:43;0.33;;;0.33;;
75441;SDS011;64019;48.312;14.226;2024-02-23T11:04:14;0.80;;;0.67;;
75441;SDS011;64019;48.312;14.226;2024-02-23T11:06:42;0.90;;;0.40;;
75441;SDS011;64019;48.312;14.226;2024-02-23T11:09:14;2.03;;;0.40;;
75441;SDS011;64019;48.312;14.226;2024-02-23T11:11:39;0.50;;;0.40;;
75441;SDS011;64019;48.312;14.226;2024-02-23T11:14:15;0.77;;;0.50;;
75441;SDS011;64019;48.312;14.226;2024-02-23T11:16:41;1.17;;;0.50;;
75441;SDS011;64019;48.312;14.226;2024-02-23T11:19:08;3.23;;;0.70;;
75441;SDS011;64019;48.312;14.226;2024-02-23T11:21:36;0.50;;;0.40;;
75441;SDS011;64019;48.312;14.226;2024-02-23T11:24:03;0.50;;;0.50;;
75441;SDS011;64019;48.312;14.226;2024-02-23T11:26:29;0.30;;;0.30;;
75441;SDS011;64019;48.312;14.226;2024-02-23T11:28:57;0.60;;;0.40;;
75441;SDS011;64019;48.312;14.226;2024-02-23T11:31:23;0.43;;;0.43;;
75441;SDS011;64019;48.312;14.226;2024-02-23T11:33:54;2.30;;;0.40;;
75441;SDS011;64019;48.312;14.226;2024-02-23T11:38:54;0.83;;;0.40;;
75441;SDS011;64019;48.312;14.226;2024-02-23T11:41:25;0.30;;;0.30;;
75441;SDS011;64019;48.312;14.226;2024-02-23T11:43:52;2.43;;;0.50;;
75441;SDS011;64019;48.312;14.226;2024-02-23T11:46:22;0.57;;;0.40;;
75441;SDS011;64019;48.312;14.226;2024-02-23T11:48:48;0.47;;;0.40;;
75441;SDS011;64019;48.312;14.226;2024-02-23T11:51:20;0.63;;;0.40;;
75441;SDS011;64019;48.312;14.226;2024-02-23T11:53:48;0.57;;;0.50;;
75441;SDS011;64019;48.312;14.226;2024-02-23T11:56:14;0.60;;;0.40;;
75441;SDS011;64019;48.312;14.226;2024-02-23T11:58:40;0.60;;;0.50;;
75441;SDS011;64019;48.312;14.226;2024-02-23T12:01:06;1.50;;;0.90;;
75441;SDS011;64019;48.312;14.226;2024-02-23T12:03:33;0.90;;;0.50;;
75441;SDS011;64019;48.312;14.226;2024-02-23T12:06:02;1.20;;;0.73;;
75441;SDS011;64019;48.312;14.226;2024-02-23T12:08:29;0.60;;;0.53;;
75441;SDS011;64019;48.312;14.226;2024-02-23T12:11:06;1.80;;;0.70;;
75441;SDS011;64019;48.312;14.226;2024-02-23T12:13:36;0.30;;;0.30;;
75441;SDS011;64019;48.312;14.226;2024-02-23T12:16:02;0.43;;;0.40;;
75441;SDS011;64019;48.312;14.226;2024-02-23T12:18:28;2.10;;;0.50;;
75441;SDS011;64019;48.312;14.226;2024-02-23T12:21:00;1.43;;;0.57;;
75441;SDS011;64019;48.312;14.226;2024-02-23T12:23:27;0.90;;;0.50;;
75441;SDS011;64019;48.312;14.226;2024-02-23T12:26:02;0.97;;;0.50;;
75441;SDS011;64019;48.312;14.226;2024-02-23T12:28:29;1.00;;;0.73;;
75441;SDS011;64019;48.312;14.226;2024-02-23T12:31:13;2.63;;;0.70;;
75441;SDS011;64019;48.312;14.226;2024-02-23T12:33:39;1.13;;;0.50;;
75441;SDS011;64019;48.312;14.226;2024-02-23T12:36:06;0.90;;;0.37;;
75441;SDS011;64019;48.312;14.226;2024-02-23T12:38:32;0.50;;;0.50;;
75441;SDS011;64019;48.312;14.226;2024-02-23T12:40:59;0.73;;;0.53;;
75441;SDS011;64019;48.312;14.226;2024-02-23T12:43:25;0.90;;;0.60;;
75441;SDS011;64019;48.312;14.226;2024-02-23T12:45:54;0.77;;;0.60;;
75441;SDS011;64019;48.312;14.226;2024-02-23T12:48:20;0.50;;;0.30;;
75441;SDS011;64019;48.312;14.226;2024-02-23T12:50:47;0.57;;;0.40;;
75441;SDS011;64019;48.312;14.226;2024-02-23T12:55:58;0.77;;;0.50;;
75441;SDS011;64019;48.312;14.226;2024-02-23T12:58:28;0.30;;;0.30;;
75441;SDS011;64019;48.312;14.226;2024-02-23T13:00:53;1.60;;;0.30;;
75441;SDS011;64019;48.312;14.226;2024-02-23T13:03:19;0.60;;;0.50;;
75441;SDS011;64019;48.312;14.226;2024-02-23T13:05:45;0.30;;;0.30;;
75441;SDS011;64019;48.312;14.226;2024-02-23T13:08:12;1.17;;;0.27;;
75441;SDS011;64019;48.312;14.226;2024-02-23T13:10:37;0.50;;;0.40;;
75441;SDS011;64019;48.312;14.226;2024-02-23T13:13:03;2.90;;;0.50;;
75441;SDS011;64019;48.312;14.226;2024-02-23T13:15:29;0.33;;;0.33;;
75441;SDS011;64019;48.312;14.226;2024-02-23T13:17:54;0.60;;;0.33;;
75441;SDS011;64019;48.312;14.226;2024-02-23T13:20:22;0.30;;;0.23;;
75441;SDS011;64019;48.312;14.226;2024-02-23T13:22:47;0.67;;;0.43;;
75441;SDS011;64019;48.312;14.226;2024-02-23T13:25:16;0.97;;;0.60;;
75441;SDS011;64019;48.312;14.226;2024-02-23T13:27:41;0.77;;;0.50;;
75441;SDS011;64019;48.312;14.226;2024-02-23T13:30:07;4.10;;;1.47;;
75441;SDS011;64019;48.312;14.226;2024-02-23T13:32:34;1.70;;;0.73;;
75441;SDS011;64019;48.312;14.226;2024-02-23T13:34:59;0.50;;;0.50;;
75441;SDS011;64019;48.312;14.226;2024-02-23T13:37:29;1.10;;;0.50;;
75441;SDS011;64019;48.312;14.226;2024-02-23T13:39:54;1.00;;;0.53;;
75441;SDS011;64019;48.312;14.226;2024-02-23T13:42:20;0.30;;;0.30;;
75441;SDS011;64019;48.312;14.226;2024-02-23T13:44:46;0.30;;;0.30;;
75441;SDS011;64019;48.312;14.226;2024-02-23T13:47:12;3.03;;;0.50;;
75441;SDS011;64019;48.312;14.226;2024-02-23T13:49:37;0.30;;;0.30;;
75441;SDS011;64019;48.312;14.226;2024-02-23T13:52:03;3.17;;;0.70;;
75441;SDS011;64019;48.312;14.226;2024-02-23T13:54:29;0.63;;;0.63;;
75441;SDS011;64019;48.312;14.226;2024-02-23T13:56:54;0.90;;;0.70;;
75441;SDS011;64019;48.312;14.226;2024-02-23T13:59:20;0.93;;;0.80;;
75441;SDS011;64019;48.312;14.226;2024-02-23T14:01:46;2.90;;;0.93;;
75441;SDS011;64019;48.312;14.226;2024-02-23T14:04:12;1.47;;;1.10;;
75441;SDS011;64019;48.312;14.226;2024-02-23T14:06:37;1.30;;;0.80;;
75441;SDS011;64019;48.312;14.226;2024-02-23T14:09:03;2.37;;;0.97;;
75441;SDS011;64019;48.312;14.226;2024-02-23T14:11:29;1.03;;;0.80;;
75441;SDS011;64019;48.312;14.226;2024-02-23T14:13:56;1.13;;;0.70;;
75441;SDS011;64019;48.312;14.226;2024-02-23T14:16:22;1.43;;;0.90;;
75441;SDS011;64019;48.312;14.226;2024-02-23T14:18:51;1.30;;;1.00;;
75441;SDS011;64019;48.312;14.226;2024-02-23T14:21:16;1.87;;;0.90;;
75441;SDS011;64019;48.312;14.226;2024-02-23T14:23:43;1.30;;;0.70;;
75441;SDS011;64019;48.312;14.226;2024-02-23T14:26:09;1.00;;;0.70;;
75441;SDS011;64019;48.312;14.226;2024-02-23T14:28:35;4.67;;;0.80;;
75441;SDS011;64019;48.312;14.226;2024-02-23T14:31:01;0.90;;;0.50;;
75441;SDS011;64019;48.312;14.226;2024-02-23T14:33:26;3.17;;;0.90;;
75441;SDS011;64019;48.312;14.226;2024-02-23T14:35:52;1.23;;;0.73;;